sensor_id;sensor_type;location;lat;lon;timestamp;temperature;humidity
4697;DHT22;2362;50.780;0.292;2023-04-03T00:00:28;3.80;99.90
4697;DHT22;2362;50.780;0.292;2023-04-03T00:02:54;3.90;99.90
4697;DHT22;2362;50.780;0.292;2023-04-03T00:05:20;3.90;99.90
4697;DHT22;2362;50.780;0.292;2023-04-03T00:07:46;3.90;99.90
4697;DHT22;2362;50.780;0.292;2023-04-03T00:10:11;4.00;99.90
4697;DHT22;2362;50.780;0.292;2023-04-03T00:12:37;4.00;99.90
4697;DHT22;2362;50.780;0.292;2023-04-03T00:15:03;4.10;99.90
4697;DHT22;2362;50.780;0.292;2023-04-03T00:17:29;4.10;99.90
4697;DHT22;2362;50.780;0.292;2023-04-03T00:19:55;4.10;99.90
4697;DHT22;2362;50.780;0.292;2023-04-03T00:22:23;4.10;99.90
4697;DHT22;2362;50.780;0.292;2023-04-03T00:24:49;4.20;99.90
4697;DHT22;2362;50.780;0.292;2023-04-03T00:27:15;4.20;99.90
4697;DHT22;2362;50.780;0.292;2023-04-03T00:29:41;4.20;99.90
4697;DHT22;2362;50.780;0.292;2023-04-03T00:32:06;4.20;99.90
4697;DHT22;2362;50.780;0.292;2023-04-03T00:34:32;4.20;99.90
4697;DHT22;2362;50.780;0.292;2023-04-03T00:36:58;4.10;99.90
4697;DHT22;2362;50.780;0.292;2023-04-03T00:39:23;4.20;99.90
4697;DHT22;2362;50.780;0.292;2023-04-03T00:41:49;4.20;99.90
4697;DHT22;2362;50.780;0.292;2023-04-03T00:47:00;4.20;99.90
4697;DHT22;2362;50.780;0.292;2023-04-03T00:49:28;4.30;99.90
4697;DHT22;2362;50.780;0.292;2023-04-03T00:51:54;4.30;99.90
4697;DHT22;2362;50.780;0.292;2023-04-03T00:54:21;4.40;99.90
4697;DHT22;2362;50.780;0.292;2023-04-03T00:56:47;4.40;99.90
4697;DHT22;2362;50.780;0.292;2023-04-03T00:59:26;4.40;99.90
4697;DHT22;2362;50.780;0.292;2023-04-03T01:01:54;4.50;99.90
4697;DHT22;2362;50.780;0.292;2023-04-03T01:07:02;4.50;99.90
4697;DHT22;2362;50.780;0.292;2023-04-03T01:09:30;4.60;99.90
4697;DHT22;2362;50.780;0.292;2023-04-03T01:12:20;4.60;99.90
4697;DHT22;2362;50.780;0.292;2023-04-03T01:14:48;4.60;99.90
4697;DHT22;2362;50.780;0.292;2023-04-03T01:17:36;4.60;99.90
4697;DHT22;2362;50.780;0.292;2023-04-03T01:22:45;4.60;99.90
4697;DHT22;2362;50.780;0.292;2023-04-03T01:25:12;4.50;99.90
4697;DHT22;2362;50.780;0.292;2023-04-03T01:27:38;4.50;99.90
4697;DHT22;2362;50.780;0.292;2023-04-03T01:30:04;4.50;99.90
4697;DHT22;2362;50.780;0.292;2023-04-03T01:32:31;4.40;99.90
4697;DHT22;2362;50.780;0.292;2023-04-03T01:34:56;4.40;99.90
4697;DHT22;2362;50.780;0.292;2023-04-03T01:37:22;4.30;99.90
4697;DHT22;2362;50.780;0.292;2023-04-03T01:39:47;4.30;99.90
4697;DHT22;2362;50.780;0.292;2023-04-03T01:42:13;4.30;99.90
4697;DHT22;2362;50.780;0.292;2023-04-03T01:44:39;4.20;99.90
4697;DHT22;2362;50.780;0.292;2023-04-03T01:47:07;4.10;99.90
4697;DHT22;2362;50.780;0.292;2023-04-03T01:49:33;4.10;99.90
4697;DHT22;2362;50.780;0.292;2023-04-03T01:51:59;4.10;99.90
4697;DHT22;2362;50.780;0.292;2023-04-03T01:54:25;4.20;99.90
4697;DHT22;2362;50.780;0.292;2023-04-03T01:56:51;4.20;99.90
4697;DHT22;2362;50.780;0.292;2023-04-03T01:59:16;4.20;99.90
4697;DHT22;2362;50.780;0.292;2023-04-03T02:01:43;4.20;99.90
4697;DHT22;2362;50.780;0.292;2023-04-03T02:04:11;4.10;99.90
4697;DHT22;2362;50.780;0.292;2023-04-03T02:06:37;4.10;99.90
4697;DHT22;2362;50.780;0.292;2023-04-03T02:09:03;4.10;99.90
4697;DHT22;2362;50.780;0.292;2023-04-03T02:11:29;4.10;99.90
4697;DHT22;2362;50.780;0.292;2023-04-03T02:13:55;4.10;99.90
4697;DHT22;2362;50.780;0.292;2023-04-03T02:16:21;4.10;99.90
4697;DHT22;2362;50.780;0.292;2023-04-03T02:18:46;4.10;99.90
4697;DHT22;2362;50.780;0.292;2023-04-03T02:21:12;4.10;99.90
4697;DHT22;2362;50.780;0.292;2023-04-03T02:23:38;4.00;99.90
4697;DHT22;2362;50.780;0.292;2023-04-03T02:26:09;4.00;99.90
4697;DHT22;2362;50.780;0.292;2023-04-03T02:28:37;4.00;99.90
4697;DHT22;2362;50.780;0.292;2023-04-03T02:31:03;4.00;99.90
4697;DHT22;2362;50.780;0.292;2023-04-03T02:33:30;4.00;99.90
4697;DHT22;2362;50.780;0.292;2023-04-03T02:35:56;4.10;99.90
4697;DHT22;2362;50.780;0.292;2023-04-03T02:38:22;4.10;99.90
4697;DHT22;2362;50.780;0.292;2023-04-03T02:40:48;4.10;99.90
4697;DHT22;2362;50.780;0.292;2023-04-03T02:43:15;4.10;99.90
4697;DHT22;2362;50.780;0.292;2023-04-03T02:45:40;4.10;99.90
4697;DHT22;2362;50.780;0.292;2023-04-03T02:48:06;4.10;99.90
4697;DHT22;2362;50.780;0.292;2023-04-03T02:50:32;4.10;99.90
4697;DHT22;2362;50.780;0.292;2023-04-03T02:52:57;4.10;99.90
4697;DHT22;2362;50.780;0.292;2023-04-03T02:55:23;4.00;99.90
4697;DHT22;2362;50.780;0.292;2023-04-03T02:57:49;4.00;99.90
4697;DHT22;2362;50.780;0.292;2023-04-03T03:00:17;4.00;99.90
4697;DHT22;2362;50.780;0.292;2023-04-03T03:02:42;4.00;99.90
4697;DHT22;2362;50.780;0.292;2023-04-03T03:05:08;3.90;99.90
4697;DHT22;2362;50.780;0.292;2023-04-03T03:07:34;3.90;99.90
4697;DHT22;2362;50.780;0.292;2023-04-03T03:10:00;3.90;99.90
4697;DHT22;2362;50.780;0.292;2023-04-03T03:12:25;3.80;99.90
4697;DHT22;2362;50.780;0.292;2023-04-03T03:14:51;3.80;99.90
4697;DHT22;2362;50.780;0.292;2023-04-03T03:17:17;3.70;99.90
4697;DHT22;2362;50.780;0.292;2023-04-03T03:19:43;3.70;99.90
4697;DHT22;2362;50.780;0.292;2023-04-03T03:22:09;3.80;99.90
4697;DHT22;2362;50.780;0.292;2023-04-03T03:24:34;3.90;99.90
4697;DHT22;2362;50.780;0.292;2023-04-03T03:27:00;3.90;99.90
4697;DHT22;2362;50.780;0.292;2023-04-03T03:29:25;3.80;99.90
4697;DHT22;2362;50.780;0.292;2023-04-03T03:32:16;3.90;99.90
4697;DHT22;2362;50.780;0.292;2023-04-03T03:34:42;3.90;99.90
4697;DHT22;2362;50.780;0.292;2023-04-03T03:37:08;3.90;99.90
4697;DHT22;2362;50.780;0.292;2023-04-03T03:39:34;3.80;99.90
4697;DHT22;2362;50.780;0.292;2023-04-03T03:41:59;3.70;99.90
4697;DHT22;2362;50.780;0.292;2023-04-03T03:44:25;3.70;99.90
4697;DHT22;2362;50.780;0.292;2023-04-03T03:46:51;3.60;99.90
4697;DHT22;2362;50.780;0.292;2023-04-03T03:49:16;3.50;99.90
4697;DHT22;2362;50.780;0.292;2023-04-03T03:51:42;3.50;99.90
4697;DHT22;2362;50.780;0.292;2023-04-03T03:54:07;3.50;99.90
4697;DHT22;2362;50.780;0.292;2023-04-03T03:56:33;3.60;99.90
4697;DHT22;2362;50.780;0.292;2023-04-03T03:58:59;3.60;99.90
4697;DHT22;2362;50.780;0.292;2023-04-03T04:01:25;3.60;99.90
4697;DHT22;2362;50.780;0.292;2023-04-03T04:03:51;3.60;99.90
4697;DHT22;2362;50.780;0.292;2023-04-03T04:06:19;3.60;99.90
4697;DHT22;2362;50.780;0.292;2023-04-03T04:08:45;3.70;99.90
4697;DHT22;2362;50.780;0.292;2023-04-03T04:11:11;3.70;99.90
4697;DHT22;2362;50.780;0.292;2023-04-03T04:13:36;3.80;99.90
4697;DHT22;2362;50.780;0.292;2023-04-03T04:16:02;3.80;99.90
4697;DHT22;2362;50.780;0.292;2023-04-03T04:18:28;3.80;99.90
4697;DHT22;2362;50.780;0.292;2023-04-03T04:20:54;3.80;99.90
4697;DHT22;2362;50.780;0.292;2023-04-03T04:23:19;3.80;99.90
4697;DHT22;2362;50.780;0.292;2023-04-03T04:25:46;3.90;99.90
4697;DHT22;2362;50.780;0.292;2023-04-03T04:28:12;3.90;99.90
4697;DHT22;2362;50.780;0.292;2023-04-03T04:30:38;3.90;99.90
4697;DHT22;2362;50.780;0.292;2023-04-03T04:33:04;4.00;99.90
4697;DHT22;2362;50.780;0.292;2023-04-03T04:35:30;4.00;99.90
4697;DHT22;2362;50.780;0.292;2023-04-03T04:37:55;4.00;99.90
4697;DHT22;2362;50.780;0.292;2023-04-03T04:40:21;4.00;99.90
4697;DHT22;2362;50.780;0.292;2023-04-03T04:42:47;4.00;99.90
4697;DHT22;2362;50.780;0.292;2023-04-03T04:45:12;4.00;99.90
4697;DHT22;2362;50.780;0.292;2023-04-03T04:47:38;4.00;99.90
4697;DHT22;2362;50.780;0.292;2023-04-03T04:50:04;4.00;99.90
4697;DHT22;2362;50.780;0.292;2023-04-03T04:52:30;4.00;99.90
4697;DHT22;2362;50.780;0.292;2023-04-03T04:54:55;4.00;99.90
4697;DHT22;2362;50.780;0.292;2023-04-03T04:57:21;4.00;99.90
4697;DHT22;2362;50.780;0.292;2023-04-03T04:59:47;4.00;99.90
4697;DHT22;2362;50.780;0.292;2023-04-03T05:02:12;4.00;99.90
4697;DHT22;2362;50.780;0.292;2023-04-03T05:04:38;4.10;99.90
4697;DHT22;2362;50.780;0.292;2023-04-03T05:07:03;4.00;99.90
4697;DHT22;2362;50.780;0.292;2023-04-03T05:09:31;4.00;99.90
4697;DHT22;2362;50.780;0.292;2023-04-03T05:11:57;4.00;99.90
4697;DHT22;2362;50.780;0.292;2023-04-03T05:14:23;4.00;99.90
4697;DHT22;2362;50.780;0.292;2023-04-03T05:16:49;4.00;99.90
4697;DHT22;2362;50.780;0.292;2023-04-03T05:19:18;4.00;99.90
4697;DHT22;2362;50.780;0.292;2023-04-03T05:21:43;4.10;99.90
4697;DHT22;2362;50.780;0.292;2023-04-03T05:24:09;4.00;99.90
4697;DHT22;2362;50.780;0.292;2023-04-03T05:26:35;4.10;99.90
4697;DHT22;2362;50.780;0.292;2023-04-03T05:29:01;4.00;99.90
4697;DHT22;2362;50.780;0.292;2023-04-03T05:31:26;4.00;99.90
4697;DHT22;2362;50.780;0.292;2023-04-03T05:33:54;4.10;99.90
4697;DHT22;2362;50.780;0.292;2023-04-03T05:36:20;4.10;99.90
4697;DHT22;2362;50.780;0.292;2023-04-03T05:38:46;4.10;99.90
4697;DHT22;2362;50.780;0.292;2023-04-03T05:41:13;4.20;99.90
4697;DHT22;2362;50.780;0.292;2023-04-03T05:43:39;4.20;99.90
4697;DHT22;2362;50.780;0.292;2023-04-03T05:46:12;4.10;99.90
4697;DHT22;2362;50.780;0.292;2023-04-03T05:48:38;4.20;99.90
4697;DHT22;2362;50.780;0.292;2023-04-03T05:51:04;4.10;99.90
4697;DHT22;2362;50.780;0.292;2023-04-03T05:53:32;4.20;99.90
4697;DHT22;2362;50.780;0.292;2023-04-03T05:55:59;4.20;99.90
4697;DHT22;2362;50.780;0.292;2023-04-03T05:58:24;4.20;99.90
4697;DHT22;2362;50.780;0.292;2023-04-03T06:00:50;4.30;99.90
4697;DHT22;2362;50.780;0.292;2023-04-03T06:03:15;4.30;99.90
4697;DHT22;2362;50.780;0.292;2023-04-03T06:05:42;4.30;99.90
4697;DHT22;2362;50.780;0.292;2023-04-03T06:08:08;4.30;99.90
4697;DHT22;2362;50.780;0.292;2023-04-03T06:10:35;4.40;99.90
4697;DHT22;2362;50.780;0.292;2023-04-03T06:13:26;4.40;99.90
4697;DHT22;2362;50.780;0.292;2023-04-03T06:15:52;4.40;99.90
4697;DHT22;2362;50.780;0.292;2023-04-03T06:18:18;4.50;99.90
4697;DHT22;2362;50.780;0.292;2023-04-03T06:20:45;4.70;99.90
4697;DHT22;2362;50.780;0.292;2023-04-03T06:23:11;4.80;99.90
4697;DHT22;2362;50.780;0.292;2023-04-03T06:25:37;5.00;99.90
4697;DHT22;2362;50.780;0.292;2023-04-03T06:28:02;5.10;99.90
4697;DHT22;2362;50.780;0.292;2023-04-03T06:30:28;5.30;99.90
4697;DHT22;2362;50.780;0.292;2023-04-03T06:32:54;5.60;99.90
4697;DHT22;2362;50.780;0.292;2023-04-03T06:35:21;5.80;99.90
4697;DHT22;2362;50.780;0.292;2023-04-03T06:37:49;6.20;99.90
4697;DHT22;2362;50.780;0.292;2023-04-03T06:40:23;6.50;99.90
4697;DHT22;2362;50.780;0.292;2023-04-03T06:43:14;6.80;99.90
4697;DHT22;2362;50.780;0.292;2023-04-03T06:45:40;7.20;99.90
4697;DHT22;2362;50.780;0.292;2023-04-03T06:48:06;7.40;99.90
4697;DHT22;2362;50.780;0.292;2023-04-03T06:50:32;7.40;99.90
4697;DHT22;2362;50.780;0.292;2023-04-03T06:52:57;7.10;99.90
4697;DHT22;2362;50.780;0.292;2023-04-03T06:55:23;6.70;99.90
4697;DHT22;2362;50.780;0.292;2023-04-03T06:57:49;6.80;99.90
4697;DHT22;2362;50.780;0.292;2023-04-03T07:00:15;7.10;99.90
4697;DHT22;2362;50.780;0.292;2023-04-03T07:02:41;7.00;99.90
4697;DHT22;2362;50.780;0.292;2023-04-03T07:05:07;6.80;99.90
4697;DHT22;2362;50.780;0.292;2023-04-03T07:07:34;7.00;99.90
4697;DHT22;2362;50.780;0.292;2023-04-03T07:10:00;7.70;99.90
4697;DHT22;2362;50.780;0.292;2023-04-03T07:12:26;8.40;99.90
4697;DHT22;2362;50.780;0.292;2023-04-03T07:14:51;8.70;99.90
4697;DHT22;2362;50.780;0.292;2023-04-03T07:17:42;9.10;99.90
4697;DHT22;2362;50.780;0.292;2023-04-03T07:20:33;8.70;99.90
4697;DHT22;2362;50.780;0.292;2023-04-03T07:22:59;8.50;99.90
4697;DHT22;2362;50.780;0.292;2023-04-03T07:25:28;8.70;99.90
4697;DHT22;2362;50.780;0.292;2023-04-03T07:27:54;8.90;99.90
4697;DHT22;2362;50.780;0.292;2023-04-03T07:30:20;8.50;99.90
4697;DHT22;2362;50.780;0.292;2023-04-03T07:32:46;8.20;99.90
4697;DHT22;2362;50.780;0.292;2023-04-03T07:35:12;8.50;99.90
4697;DHT22;2362;50.780;0.292;2023-04-03T07:37:38;8.90;99.90
4697;DHT22;2362;50.780;0.292;2023-04-03T07:40:04;9.40;99.90
4697;DHT22;2362;50.780;0.292;2023-04-03T07:42:30;9.50;99.90
4697;DHT22;2362;50.780;0.292;2023-04-03T07:44:57;9.50;99.90
4697;DHT22;2362;50.780;0.292;2023-04-03T07:47:22;9.10;99.90
4697;DHT22;2362;50.780;0.292;2023-04-03T07:49:48;9.20;99.90
4697;DHT22;2362;50.780;0.292;2023-04-03T07:52:14;9.30;99.90
4697;DHT22;2362;50.780;0.292;2023-04-03T07:54:41;9.90;99.90
4697;DHT22;2362;50.780;0.292;2023-04-03T07:57:07;10.40;99.90
4697;DHT22;2362;50.780;0.292;2023-04-03T07:59:33;10.80;99.90
4697;DHT22;2362;50.780;0.292;2023-04-03T08:01:59;10.90;99.90
4697;DHT22;2362;50.780;0.292;2023-04-03T08:04:25;11.10;99.90
4697;DHT22;2362;50.780;0.292;2023-04-03T08:06:51;11.30;99.90
4697;DHT22;2362;50.780;0.292;2023-04-03T08:09:17;11.20;99.90
4697;DHT22;2362;50.780;0.292;2023-04-03T08:11:44;11.20;99.90
4697;DHT22;2362;50.780;0.292;2023-04-03T08:14:10;11.20;99.90
4697;DHT22;2362;50.780;0.292;2023-04-03T08:16:42;10.70;99.90
4697;DHT22;2362;50.780;0.292;2023-04-03T08:19:08;10.80;99.90
4697;DHT22;2362;50.780;0.292;2023-04-03T08:21:34;10.60;99.90
4697;DHT22;2362;50.780;0.292;2023-04-03T08:23:59;10.40;99.90
4697;DHT22;2362;50.780;0.292;2023-04-03T08:26:25;10.60;99.90
4697;DHT22;2362;50.780;0.292;2023-04-03T08:28:52;10.20;99.90
4697;DHT22;2362;50.780;0.292;2023-04-03T08:31:19;10.00;99.90
4697;DHT22;2362;50.780;0.292;2023-04-03T08:33:46;9.80;99.90
4697;DHT22;2362;50.780;0.292;2023-04-03T08:36:24;9.60;99.90
4697;DHT22;2362;50.780;0.292;2023-04-03T08:38:51;10.00;99.90
4697;DHT22;2362;50.780;0.292;2023-04-03T08:41:20;10.10;99.90
4697;DHT22;2362;50.780;0.292;2023-04-03T08:46:26;10.40;99.90
4697;DHT22;2362;50.780;0.292;2023-04-03T08:49:29;10.00;99.90
4697;DHT22;2362;50.780;0.292;2023-04-03T08:52:00;9.80;99.90
4697;DHT22;2362;50.780;0.292;2023-04-03T08:54:37;9.60;99.90
4697;DHT22;2362;50.780;0.292;2023-04-03T08:57:06;9.60;99.90
4697;DHT22;2362;50.780;0.292;2023-04-03T08:59:37;9.40;99.90
4697;DHT22;2362;50.780;0.292;2023-04-03T09:05:15;9.20;99.90
4697;DHT22;2362;50.780;0.292;2023-04-03T09:07:53;9.50;99.90
4697;DHT22;2362;50.780;0.292;2023-04-03T09:10:29;9.30;99.90
4697;DHT22;2362;50.780;0.292;2023-04-03T09:13:30;9.20;99.90
4697;DHT22;2362;50.780;0.292;2023-04-03T09:16:00;9.20;99.90
4697;DHT22;2362;50.780;0.292;2023-04-03T09:18:31;8.80;99.90
4697;DHT22;2362;50.780;0.292;2023-04-03T09:21:17;8.80;99.90
4697;DHT22;2362;50.780;0.292;2023-04-03T09:23:55;9.00;99.90
4697;DHT22;2362;50.780;0.292;2023-04-03T09:26:33;8.80;99.90
4697;DHT22;2362;50.780;0.292;2023-04-03T09:29:05;8.80;99.90
4697;DHT22;2362;50.780;0.292;2023-04-03T09:31:40;8.80;99.90
4697;DHT22;2362;50.780;0.292;2023-04-03T09:34:32;9.00;99.90
4697;DHT22;2362;50.780;0.292;2023-04-03T09:37:00;9.00;99.90
4697;DHT22;2362;50.780;0.292;2023-04-03T09:39:32;9.00;99.90
4697;DHT22;2362;50.780;0.292;2023-04-03T09:42:23;8.90;99.90
4697;DHT22;2362;50.780;0.292;2023-04-03T09:44:58;8.90;99.90
4697;DHT22;2362;50.780;0.292;2023-04-03T09:47:28;8.80;99.90
4697;DHT22;2362;50.780;0.292;2023-04-03T09:52:45;8.90;99.90
4697;DHT22;2362;50.780;0.292;2023-04-03T09:55:17;8.90;99.90
4697;DHT22;2362;50.780;0.292;2023-04-03T09:57:44;8.90;99.90
4697;DHT22;2362;50.780;0.292;2023-04-03T10:00:26;8.70;99.90
4697;DHT22;2362;50.780;0.292;2023-04-03T10:02:54;8.80;99.90
4697;DHT22;2362;50.780;0.292;2023-04-03T10:05:36;8.90;99.90
4697;DHT22;2362;50.780;0.292;2023-04-03T10:08:19;8.90;99.90
4697;DHT22;2362;50.780;0.292;2023-04-03T10:10:47;9.00;99.90
4697;DHT22;2362;50.780;0.292;2023-04-03T10:13:20;9.00;99.90
4697;DHT22;2362;50.780;0.292;2023-04-03T10:16:17;9.10;99.90
4697;DHT22;2362;50.780;0.292;2023-04-03T10:18:58;9.10;99.90
4697;DHT22;2362;50.780;0.292;2023-04-03T10:27:39;8.90;99.90
4697;DHT22;2362;50.780;0.292;2023-04-03T10:33:14;9.20;99.90
4697;DHT22;2362;50.780;0.292;2023-04-03T10:44:14;9.20;99.90
4697;DHT22;2362;50.780;0.292;2023-04-03T10:46:53;9.20;99.90
4697;DHT22;2362;50.780;0.292;2023-04-03T10:50:00;9.10;99.90
4697;DHT22;2362;50.780;0.292;2023-04-03T10:52:56;9.10;99.90
4697;DHT22;2362;50.780;0.292;2023-04-03T10:57:56;9.20;99.90
4697;DHT22;2362;50.780;0.292;2023-04-03T11:00:39;9.20;99.90
4697;DHT22;2362;50.780;0.292;2023-04-03T11:05:52;9.00;99.90
4697;DHT22;2362;50.780;0.292;2023-04-03T11:11:23;9.10;99.90
4697;DHT22;2362;50.780;0.292;2023-04-03T11:14:09;9.10;99.90
4697;DHT22;2362;50.780;0.292;2023-04-03T11:17:01;9.30;99.90
4697;DHT22;2362;50.780;0.292;2023-04-03T11:19:36;9.20;99.90
4697;DHT22;2362;50.780;0.292;2023-04-03T11:22:27;9.20;99.90
4697;DHT22;2362;50.780;0.292;2023-04-03T11:25:04;9.20;99.90
4697;DHT22;2362;50.780;0.292;2023-04-03T11:27:55;9.40;99.90
4697;DHT22;2362;50.780;0.292;2023-04-03T11:30:33;9.40;99.90
4697;DHT22;2362;50.780;0.292;2023-04-03T11:33:09;9.40;99.90
4697;DHT22;2362;50.780;0.292;2023-04-03T11:35:43;9.50;99.90
4697;DHT22;2362;50.780;0.292;2023-04-03T11:38:17;9.40;99.90
4697;DHT22;2362;50.780;0.292;2023-04-03T11:40:44;9.50;99.90
4697;DHT22;2362;50.780;0.292;2023-04-03T11:43:26;9.30;99.90
4697;DHT22;2362;50.780;0.292;2023-04-03T11:46:01;9.50;99.90
4697;DHT22;2362;50.780;0.292;2023-04-03T11:51:01;9.30;99.90
4697;DHT22;2362;50.780;0.292;2023-04-03T11:56:00;9.50;99.90
4697;DHT22;2362;50.780;0.292;2023-04-03T11:58:34;9.60;99.90
4697;DHT22;2362;50.780;0.292;2023-04-03T12:32:06;9.50;99.90
4697;DHT22;2362;50.780;0.292;2023-04-03T12:40:33;9.50;99.90
4697;DHT22;2362;50.780;0.292;2023-04-03T12:48:29;9.70;99.90
4697;DHT22;2362;50.780;0.292;2023-04-03T12:50:57;9.80;99.90
4697;DHT22;2362;50.780;0.292;2023-04-03T12:53:33;9.60;99.90
4697;DHT22;2362;50.780;0.292;2023-04-03T12:58:44;9.50;99.90
4697;DHT22;2362;50.780;0.292;2023-04-03T13:01:13;9.60;99.90
4697;DHT22;2362;50.780;0.292;2023-04-03T13:03:45;9.50;99.90
4697;DHT22;2362;50.780;0.292;2023-04-03T13:06:17;9.60;99.90
4697;DHT22;2362;50.780;0.292;2023-04-03T13:08:54;9.50;99.90
4697;DHT22;2362;50.780;0.292;2023-04-03T13:11:24;9.40;99.90
4697;DHT22;2362;50.780;0.292;2023-04-03T13:13:58;9.40;99.90
4697;DHT22;2362;50.780;0.292;2023-04-03T13:16:25;9.60;99.90
4697;DHT22;2362;50.780;0.292;2023-04-03T13:18:53;9.70;99.90
4697;DHT22;2362;50.780;0.292;2023-04-03T13:21:26;9.90;99.90
4697;DHT22;2362;50.780;0.292;2023-04-03T13:23:58;9.60;99.90
4697;DHT22;2362;50.780;0.292;2023-04-03T13:26:28;9.70;99.90
4697;DHT22;2362;50.780;0.292;2023-04-03T13:29:04;9.60;99.90
4697;DHT22;2362;50.780;0.292;2023-04-03T13:31:33;9.80;99.90
4697;DHT22;2362;50.780;0.292;2023-04-03T13:34:19;9.60;99.90
4697;DHT22;2362;50.780;0.292;2023-04-03T13:39:22;9.60;99.90
4697;DHT22;2362;50.780;0.292;2023-04-03T13:41:56;9.60;99.90
4697;DHT22;2362;50.780;0.292;2023-04-03T13:46:49;9.60;99.90
4697;DHT22;2362;50.780;0.292;2023-04-03T13:49:38;9.50;99.90
4697;DHT22;2362;50.780;0.292;2023-04-03T13:52:39;9.60;99.90
4697;DHT22;2362;50.780;0.292;2023-04-03T13:55:20;9.70;99.90
4697;DHT22;2362;50.780;0.292;2023-04-03T13:57:59;9.70;99.90
4697;DHT22;2362;50.780;0.292;2023-04-03T14:03:22;9.60;99.90
4697;DHT22;2362;50.780;0.292;2023-04-03T14:05:49;9.50;99.90
4697;DHT22;2362;50.780;0.292;2023-04-03T14:08:14;9.60;99.90
4697;DHT22;2362;50.780;0.292;2023-04-03T14:10:42;9.70;99.90
4697;DHT22;2362;50.780;0.292;2023-04-03T14:13:13;9.70;99.90
4697;DHT22;2362;50.780;0.292;2023-04-03T14:15:39;9.60;99.90
4697;DHT22;2362;50.780;0.292;2023-04-03T14:18:05;9.80;99.90
4697;DHT22;2362;50.780;0.292;2023-04-03T14:20:31;9.70;99.90
4697;DHT22;2362;50.780;0.292;2023-04-03T14:22:56;9.60;99.90
4697;DHT22;2362;50.780;0.292;2023-04-03T14:25:23;9.70;99.90
4697;DHT22;2362;50.780;0.292;2023-04-03T14:27:52;9.60;99.90
4697;DHT22;2362;50.780;0.292;2023-04-03T14:30:27;9.60;99.90
4697;DHT22;2362;50.780;0.292;2023-04-03T14:32:54;9.60;99.90
4697;DHT22;2362;50.780;0.292;2023-04-03T14:35:20;9.50;99.90
4697;DHT22;2362;50.780;0.292;2023-04-03T14:37:47;9.50;99.90
4697;DHT22;2362;50.780;0.292;2023-04-03T14:40:17;9.50;99.90
4697;DHT22;2362;50.780;0.292;2023-04-03T14:42:44;9.50;99.90
4697;DHT22;2362;50.780;0.292;2023-04-03T14:45:12;9.50;99.90
4697;DHT22;2362;50.780;0.292;2023-04-03T14:47:44;9.50;99.90
4697;DHT22;2362;50.780;0.292;2023-04-03T14:50:15;9.50;99.90
4697;DHT22;2362;50.780;0.292;2023-04-03T14:52:43;9.50;99.90
4697;DHT22;2362;50.780;0.292;2023-04-03T14:55:09;9.60;99.90
4697;DHT22;2362;50.780;0.292;2023-04-03T14:57:34;9.50;99.90
4697;DHT22;2362;50.780;0.292;2023-04-03T15:00:00;9.50;99.90
4697;DHT22;2362;50.780;0.292;2023-04-03T15:04:54;9.50;99.90
4697;DHT22;2362;50.780;0.292;2023-04-03T15:07:20;9.50;99.90
4697;DHT22;2362;50.780;0.292;2023-04-03T15:09:46;9.60;99.90
4697;DHT22;2362;50.780;0.292;2023-04-03T15:12:12;9.50;99.90
4697;DHT22;2362;50.780;0.292;2023-04-03T15:14:38;9.60;99.90
4697;DHT22;2362;50.780;0.292;2023-04-03T15:17:05;9.60;99.90
4697;DHT22;2362;50.780;0.292;2023-04-03T15:19:37;9.60;99.90
4697;DHT22;2362;50.780;0.292;2023-04-03T15:22:03;9.60;99.90
4697;DHT22;2362;50.780;0.292;2023-04-03T15:24:29;9.60;99.90
4697;DHT22;2362;50.780;0.292;2023-04-03T15:26:54;9.60;99.90
4697;DHT22;2362;50.780;0.292;2023-04-03T15:29:20;9.70;99.90
4697;DHT22;2362;50.780;0.292;2023-04-03T15:31:46;9.70;99.90
4697;DHT22;2362;50.780;0.292;2023-04-03T15:34:11;9.60;99.90
4697;DHT22;2362;50.780;0.292;2023-04-03T15:36:37;9.60;99.90
4697;DHT22;2362;50.780;0.292;2023-04-03T15:39:03;9.50;99.90
4697;DHT22;2362;50.780;0.292;2023-04-03T15:41:28;9.50;99.90
4697;DHT22;2362;50.780;0.292;2023-04-03T15:43:54;9.60;99.90
4697;DHT22;2362;50.780;0.292;2023-04-03T15:46:20;9.50;99.90
4697;DHT22;2362;50.780;0.292;2023-04-03T15:48:46;9.40;99.90
4697;DHT22;2362;50.780;0.292;2023-04-03T15:51:11;9.50;99.90
4697;DHT22;2362;50.780;0.292;2023-04-03T15:53:37;9.50;99.90
4697;DHT22;2362;50.780;0.292;2023-04-03T15:56:03;9.40;99.90
4697;DHT22;2362;50.780;0.292;2023-04-03T15:58:30;9.50;99.90
4697;DHT22;2362;50.780;0.292;2023-04-03T16:00:56;9.40;99.90
4697;DHT22;2362;50.780;0.292;2023-04-03T16:03:22;9.40;99.90
4697;DHT22;2362;50.780;0.292;2023-04-03T16:05:50;9.40;99.90
4697;DHT22;2362;50.780;0.292;2023-04-03T16:08:17;9.40;99.90
4697;DHT22;2362;50.780;0.292;2023-04-03T16:10:43;9.40;99.90
4697;DHT22;2362;50.780;0.292;2023-04-03T16:13:11;9.30;99.90
4697;DHT22;2362;50.780;0.292;2023-04-03T16:15:37;9.40;99.90
4697;DHT22;2362;50.780;0.292;2023-04-03T16:18:03;9.30;99.90
4697;DHT22;2362;50.780;0.292;2023-04-03T16:20:30;9.40;99.90
4697;DHT22;2362;50.780;0.292;2023-04-03T16:22:57;9.40;99.90
4697;DHT22;2362;50.780;0.292;2023-04-03T16:25:49;9.40;99.90
4697;DHT22;2362;50.780;0.292;2023-04-03T16:28:15;9.30;99.90
4697;DHT22;2362;50.780;0.292;2023-04-03T16:30:43;9.30;99.90
4697;DHT22;2362;50.780;0.292;2023-04-03T16:33:10;9.20;99.90
4697;DHT22;2362;50.780;0.292;2023-04-03T16:35:37;9.20;99.90
4697;DHT22;2362;50.780;0.292;2023-04-03T16:38:02;9.20;99.90
4697;DHT22;2362;50.780;0.292;2023-04-03T16:40:28;9.20;99.90
4697;DHT22;2362;50.780;0.292;2023-04-03T16:42:54;9.20;99.90
4697;DHT22;2362;50.780;0.292;2023-04-03T16:45:20;9.20;99.90
4697;DHT22;2362;50.780;0.292;2023-04-03T16:47:46;9.20;99.90
4697;DHT22;2362;50.780;0.292;2023-04-03T16:50:11;9.20;99.90
4697;DHT22;2362;50.780;0.292;2023-04-03T16:52:37;9.20;99.90
4697;DHT22;2362;50.780;0.292;2023-04-03T16:55:03;9.20;99.90
4697;DHT22;2362;50.780;0.292;2023-04-03T16:57:29;9.20;99.90
4697;DHT22;2362;50.780;0.292;2023-04-03T16:59:55;9.10;99.90
4697;DHT22;2362;50.780;0.292;2023-04-03T17:02:22;9.10;99.90
4697;DHT22;2362;50.780;0.292;2023-04-03T17:04:50;9.10;99.90
4697;DHT22;2362;50.780;0.292;2023-04-03T17:07:18;9.20;99.90
4697;DHT22;2362;50.780;0.292;2023-04-03T17:09:43;9.20;99.90
4697;DHT22;2362;50.780;0.292;2023-04-03T17:12:09;9.20;99.90
4697;DHT22;2362;50.780;0.292;2023-04-03T17:14:35;9.10;99.90
4697;DHT22;2362;50.780;0.292;2023-04-03T17:17:02;9.10;99.90
4697;DHT22;2362;50.780;0.292;2023-04-03T17:19:28;9.10;99.90
4697;DHT22;2362;50.780;0.292;2023-04-03T17:21:54;9.10;99.90
4697;DHT22;2362;50.780;0.292;2023-04-03T17:24:20;9.00;99.90
4697;DHT22;2362;50.780;0.292;2023-04-03T17:26:46;9.00;99.90
4697;DHT22;2362;50.780;0.292;2023-04-03T17:29:11;9.00;99.90
4697;DHT22;2362;50.780;0.292;2023-04-03T17:31:37;9.00;99.90
4697;DHT22;2362;50.780;0.292;2023-04-03T17:34:03;9.10;99.90
4697;DHT22;2362;50.780;0.292;2023-04-03T17:36:30;9.00;99.90
4697;DHT22;2362;50.780;0.292;2023-04-03T17:38:56;9.00;99.90
4697;DHT22;2362;50.780;0.292;2023-04-03T17:41:22;9.00;99.90
4697;DHT22;2362;50.780;0.292;2023-04-03T17:43:48;8.90;99.90
4697;DHT22;2362;50.780;0.292;2023-04-03T17:46:14;8.90;99.90
4697;DHT22;2362;50.780;0.292;2023-04-03T17:48:41;8.90;99.90
4697;DHT22;2362;50.780;0.292;2023-04-03T17:51:12;8.90;99.90
4697;DHT22;2362;50.780;0.292;2023-04-03T17:53:39;8.90;99.90
4697;DHT22;2362;50.780;0.292;2023-04-03T17:56:10;8.90;99.90
4697;DHT22;2362;50.780;0.292;2023-04-03T17:58:36;8.90;99.90
4697;DHT22;2362;50.780;0.292;2023-04-03T18:01:13;8.90;99.90
4697;DHT22;2362;50.780;0.292;2023-04-03T18:04:05;8.90;99.90
4697;DHT22;2362;50.780;0.292;2023-04-03T18:06:43;8.80;99.90
4697;DHT22;2362;50.780;0.292;2023-04-03T18:09:13;8.70;99.90
4697;DHT22;2362;50.780;0.292;2023-04-03T18:11:40;8.70;99.90